sensor_id;sensor_type;location;lat;lon;timestamp;P1;durP1;ratioP1;P2;durP2;ratioP2
41815;SDS011;27814;53.452;-6.180;2022-12-18T00:00:05;7.13;;;3.47;;
41815;SDS011;27814;53.452;-6.180;2022-12-18T00:02:35;8.23;;;2.90;;
41815;SDS011;27814;53.452;-6.180;2022-12-18T00:05:04;5.85;;;2.80;;
41815;SDS011;27814;53.452;-6.180;2022-12-18T00:07:33;4.93;;;2.65;;
41815;SDS011;27814;53.452;-6.180;2022-12-18T00:10:01;6.85;;;2.70;;
41815;SDS011;27814;53.452;-6.180;2022-12-18T00:12:31;5.88;;;2.35;;
41815;SDS011;27814;53.452;-6.180;2022-12-18T00:14:59;6.10;;;2.53;;
41815;SDS011;27814;53.452;-6.180;2022-12-18T00:17:27;6.97;;;2.45;;
41815;SDS011;27814;53.452;-6.180;2022-12-18T00:19:56;8.63;;;2.72;;
41815;SDS011;27814;53.452;-6.180;2022-12-18T00:22:24;6.93;;;2.75;;
41815;SDS011;27814;53.452;-6.180;2022-12-18T00:24:53;4.63;;;2.63;;
41815;SDS011;27814;53.452;-6.180;2022-12-18T00:27:21;6.18;;;3.08;;
41815;SDS011;27814;53.452;-6.180;2022-12-18T00:29:51;6.75;;;2.85;;
41815;SDS011;27814;53.452;-6.180;2022-12-18T00:32:19;5.75;;;2.88;;
41815;SDS011;27814;53.452;-6.180;2022-12-18T00:34:47;7.63;;;3.10;;
41815;SDS011;27814;53.452;-6.180;2022-12-18T00:37:16;9.60;;;3.35;;
41815;SDS011;27814;53.452;-6.180;2022-12-18T00:39:47;8.33;;;3.50;;
41815;SDS011;27814;53.452;-6.180;2022-12-18T00:42:16;6.53;;;3.47;;
41815;SDS011;27814;53.452;-6.180;2022-12-18T00:45:02;9.00;;;3.42;;
41815;SDS011;27814;53.452;-6.180;2022-12-18T00:47:38;5.78;;;3.00;;
41815;SDS011;27814;53.452;-6.180;2022-12-18T00:50:07;6.93;;;3.10;;
41815;SDS011;27814;53.452;-6.180;2022-12-18T00:52:36;6.70;;;3.20;;
41815;SDS011;27814;53.452;-6.180;2022-12-18T00:55:05;7.00;;;3.42;;
41815;SDS011;27814;53.452;-6.180;2022-12-18T00:57:34;9.05;;;4.40;;
41815;SDS011;27814;53.452;-6.180;2022-12-18T01:00:06;7.15;;;3.95;;
41815;SDS011;27814;53.452;-6.180;2022-12-18T01:02:36;8.07;;;4.15;;
41815;SDS011;27814;53.452;-6.180;2022-12-18T01:05:04;8.32;;;4.03;;
41815;SDS011;27814;53.452;-6.180;2022-12-18T01:07:33;10.35;;;3.88;;
41815;SDS011;27814;53.452;-6.180;2022-12-18T01:10:02;6.72;;;3.58;;
41815;SDS011;27814;53.452;-6.180;2022-12-18T01:12:32;9.63;;;3.95;;
41815;SDS011;27814;53.452;-6.180;2022-12-18T01:15:00;6.72;;;3.55;;
41815;SDS011;27814;53.452;-6.180;2022-12-18T01:17:30;8.13;;;3.50;;
41815;SDS011;27814;53.452;-6.180;2022-12-18T01:19:58;7.40;;;3.70;;
41815;SDS011;27814;53.452;-6.180;2022-12-18T01:22:27;7.93;;;3.63;;
41815;SDS011;27814;53.452;-6.180;2022-12-18T01:24:55;8.13;;;3.83;;
41815;SDS011;27814;53.452;-6.180;2022-12-18T01:27:23;6.28;;;3.20;;
41815;SDS011;27814;53.452;-6.180;2022-12-18T01:29:52;5.57;;;2.80;;
41815;SDS011;27814;53.452;-6.180;2022-12-18T01:32:20;7.07;;;3.37;;
41815;SDS011;27814;53.452;-6.180;2022-12-18T01:34:50;5.88;;;2.80;;
41815;SDS011;27814;53.452;-6.180;2022-12-18T01:37:18;5.13;;;2.70;;
41815;SDS011;27814;53.452;-6.180;2022-12-18T01:39:47;6.82;;;3.00;;
41815;SDS011;27814;53.452;-6.180;2022-12-18T01:42:16;7.13;;;3.65;;
41815;SDS011;27814;53.452;-6.180;2022-12-18T01:44:53;6.53;;;2.88;;
41815;SDS011;27814;53.452;-6.180;2022-12-18T01:47:28;6.95;;;2.90;;
41815;SDS011;27814;53.452;-6.180;2022-12-18T01:50:03;6.15;;;2.50;;
41815;SDS011;27814;53.452;-6.180;2022-12-18T01:52:35;5.53;;;2.60;;
41815;SDS011;27814;53.452;-6.180;2022-12-18T01:55:05;5.93;;;2.65;;
41815;SDS011;27814;53.452;-6.180;2022-12-18T01:57:34;7.93;;;2.65;;
41815;SDS011;27814;53.452;-6.180;2022-12-18T02:00:05;6.22;;;2.70;;
41815;SDS011;27814;53.452;-6.180;2022-12-18T02:02:35;5.53;;;2.22;;
41815;SDS011;27814;53.452;-6.180;2022-12-18T02:05:06;8.57;;;2.30;;
41815;SDS011;27814;53.452;-6.180;2022-12-18T02:07:37;9.20;;;2.67;;
41815;SDS011;27814;53.452;-6.180;2022-12-18T02:10:14;10.32;;;2.28;;
41815;SDS011;27814;53.452;-6.180;2022-12-18T02:12:48;5.70;;;1.83;;
41815;SDS011;27814;53.452;-6.180;2022-12-18T02:15:24;4.43;;;1.63;;
41815;SDS011;27814;53.452;-6.180;2022-12-18T02:18:01;8.02;;;1.92;;
41815;SDS011;27814;53.452;-6.180;2022-12-18T02:20:36;8.85;;;2.25;;
41815;SDS011;27814;53.452;-6.180;2022-12-18T02:23:14;9.45;;;2.17;;
41815;SDS011;27814;53.452;-6.180;2022-12-18T02:28:43;7.97;;;1.30;;
41815;SDS011;27814;53.452;-6.180;2022-12-18T02:31:16;5.82;;;1.40;;
41815;SDS011;27814;53.452;-6.180;2022-12-18T02:33:51;15.53;;;1.87;;
41815;SDS011;27814;53.452;-6.180;2022-12-18T02:36:23;9.23;;;1.48;;
41815;SDS011;27814;53.452;-6.180;2022-12-18T02:38:53;9.18;;;1.60;;
41815;SDS011;27814;53.452;-6.180;2022-12-18T02:41:24;10.02;;;1.50;;
41815;SDS011;27814;53.452;-6.180;2022-12-18T02:43:55;9.02;;;1.58;;
41815;SDS011;27814;53.452;-6.180;2022-12-18T02:46:28;12.55;;;1.70;;
41815;SDS011;27814;53.452;-6.180;2022-12-18T02:49:02;11.80;;;1.90;;
41815;SDS011;27814;53.452;-6.180;2022-12-18T02:51:42;10.35;;;1.77;;
41815;SDS011;27814;53.452;-6.180;2022-12-18T02:54:20;7.45;;;1.60;;
41815;SDS011;27814;53.452;-6.180;2022-12-18T02:57:07;10.70;;;2.10;;
41815;SDS011;27814;53.452;-6.180;2022-12-18T02:59:44;8.02;;;1.83;;
41815;SDS011;27814;53.452;-6.180;2022-12-18T03:02:21;9.35;;;1.85;;
41815;SDS011;27814;53.452;-6.180;2022-12-18T03:04:55;8.23;;;1.57;;
41815;SDS011;27814;53.452;-6.180;2022-12-18T03:07:34;11.65;;;2.00;;
41815;SDS011;27814;53.452;-6.180;2022-12-18T03:10:06;10.32;;;1.88;;
41815;SDS011;27814;53.452;-6.180;2022-12-18T03:12:41;7.03;;;1.80;;
41815;SDS011;27814;53.452;-6.180;2022-12-18T03:15:13;10.73;;;1.90;;
41815;SDS011;27814;53.452;-6.180;2022-12-18T03:17:45;10.03;;;2.03;;
41815;SDS011;27814;53.452;-6.180;2022-12-18T03:20:19;6.75;;;1.65;;
41815;SDS011;27814;53.452;-6.180;2022-12-18T03:22:50;8.90;;;1.90;;
41815;SDS011;27814;53.452;-6.180;2022-12-18T03:25:21;6.83;;;1.77;;
41815;SDS011;27814;53.452;-6.180;2022-12-18T03:27:51;13.32;;;2.30;;
41815;SDS011;27814;53.452;-6.180;2022-12-18T03:30:24;9.18;;;1.90;;
41815;SDS011;27814;53.452;-6.180;2022-12-18T03:32:56;9.00;;;1.77;;
41815;SDS011;27814;53.452;-6.180;2022-12-18T03:35:30;7.20;;;1.92;;
41815;SDS011;27814;53.452;-6.180;2022-12-18T03:38:02;9.13;;;2.22;;
41815;SDS011;27814;53.452;-6.180;2022-12-18T03:40:31;10.55;;;2.42;;
41815;SDS011;27814;53.452;-6.180;2022-12-18T03:43:10;10.18;;;2.60;;
41815;SDS011;27814;53.452;-6.180;2022-12-18T03:45:46;10.23;;;2.40;;
41815;SDS011;27814;53.452;-6.180;2022-12-18T03:48:19;11.40;;;2.28;;
41815;SDS011;27814;53.452;-6.180;2022-12-18T03:50:56;8.88;;;2.30;;
41815;SDS011;27814;53.452;-6.180;2022-12-18T03:53:29;8.68;;;2.70;;
41815;SDS011;27814;53.452;-6.180;2022-12-18T03:56:04;10.32;;;3.10;;
41815;SDS011;27814;53.452;-6.180;2022-12-18T03:58:35;10.50;;;3.03;;
41815;SDS011;27814;53.452;-6.180;2022-12-18T04:01:07;12.48;;;3.22;;
41815;SDS011;27814;53.452;-6.180;2022-12-18T04:03:37;10.50;;;3.03;;
41815;SDS011;27814;53.452;-6.180;2022-12-18T04:06:07;13.77;;;3.47;;
41815;SDS011;27814;53.452;-6.180;2022-12-18T04:08:35;13.00;;;3.23;;
41815;SDS011;27814;53.452;-6.180;2022-12-18T04:11:04;11.10;;;3.80;;
41815;SDS011;27814;53.452;-6.180;2022-12-18T04:13:34;11.75;;;4.20;;
41815;SDS011;27814;53.452;-6.180;2022-12-18T04:16:06;11.55;;;3.88;;
41815;SDS011;27814;53.452;-6.180;2022-12-18T04:18:36;13.82;;;4.55;;
41815;SDS011;27814;53.452;-6.180;2022-12-18T04:21:05;14.32;;;4.40;;
41815;SDS011;27814;53.452;-6.180;2022-12-18T04:23:33;12.82;;;4.18;;
41815;SDS011;27814;53.452;-6.180;2022-12-18T04:26:02;14.20;;;4.57;;
41815;SDS011;27814;53.452;-6.180;2022-12-18T04:28:30;11.67;;;4.70;;
41815;SDS011;27814;53.452;-6.180;2022-12-18T04:31:00;16.10;;;4.88;;
41815;SDS011;27814;53.452;-6.180;2022-12-18T04:33:28;12.70;;;4.60;;
41815;SDS011;27814;53.452;-6.180;2022-12-18T04:35:57;14.18;;;4.97;;
41815;SDS011;27814;53.452;-6.180;2022-12-18T04:38:25;20.00;;;4.87;;
41815;SDS011;27814;53.452;-6.180;2022-12-18T04:40:53;13.15;;;5.07;;
41815;SDS011;27814;53.452;-6.180;2022-12-18T04:43:22;16.35;;;4.95;;
41815;SDS011;27814;53.452;-6.180;2022-12-18T04:45:50;12.53;;;4.73;;
41815;SDS011;27814;53.452;-6.180;2022-12-18T04:48:20;11.98;;;4.78;;
41815;SDS011;27814;53.452;-6.180;2022-12-18T04:50:48;18.45;;;5.88;;
41815;SDS011;27814;53.452;-6.180;2022-12-18T04:53:16;16.93;;;5.13;;
41815;SDS011;27814;53.452;-6.180;2022-12-18T04:55:45;12.63;;;4.97;;
41815;SDS011;27814;53.452;-6.180;2022-12-18T04:58:14;13.10;;;4.90;;
41815;SDS011;27814;53.452;-6.180;2022-12-18T05:00:42;12.10;;;5.20;;
41815;SDS011;27814;53.452;-6.180;2022-12-18T05:03:11;13.25;;;4.82;;
41815;SDS011;27814;53.452;-6.180;2022-12-18T05:05:40;14.73;;;4.82;;
41815;SDS011;27814;53.452;-6.180;2022-12-18T05:08:09;16.50;;;5.15;;
41815;SDS011;27814;53.452;-6.180;2022-12-18T05:10:37;16.60;;;5.05;;
41815;SDS011;27814;53.452;-6.180;2022-12-18T05:13:06;13.63;;;5.00;;
41815;SDS011;27814;53.452;-6.180;2022-12-18T05:15:35;17.73;;;5.37;;
41815;SDS011;27814;53.452;-6.180;2022-12-18T05:18:03;14.33;;;5.50;;
41815;SDS011;27814;53.452;-6.180;2022-12-18T05:20:32;16.00;;;4.95;;
41815;SDS011;27814;53.452;-6.180;2022-12-18T05:23:02;16.23;;;5.40;;
41815;SDS011;27814;53.452;-6.180;2022-12-18T05:25:30;16.13;;;4.65;;
41815;SDS011;27814;53.452;-6.180;2022-12-18T05:27:58;13.70;;;5.03;;
41815;SDS011;27814;53.452;-6.180;2022-12-18T05:30:26;15.40;;;5.10;;
41815;SDS011;27814;53.452;-6.180;2022-12-18T05:32:55;14.20;;;4.75;;
41815;SDS011;27814;53.452;-6.180;2022-12-18T05:35:24;15.60;;;5.05;;
41815;SDS011;27814;53.452;-6.180;2022-12-18T05:37:53;18.77;;;5.38;;
41815;SDS011;27814;53.452;-6.180;2022-12-18T05:40:23;15.13;;;5.18;;
41815;SDS011;27814;53.452;-6.180;2022-12-18T05:42:51;14.90;;;4.43;;
41815;SDS011;27814;53.452;-6.180;2022-12-18T05:45:19;19.38;;;5.47;;
41815;SDS011;27814;53.452;-6.180;2022-12-18T05:47:47;15.25;;;5.63;;
41815;SDS011;27814;53.452;-6.180;2022-12-18T05:50:16;12.95;;;4.63;;
41815;SDS011;27814;53.452;-6.180;2022-12-18T05:52:44;17.10;;;4.93;;
41815;SDS011;27814;53.452;-6.180;2022-12-18T05:55:12;16.83;;;4.95;;
41815;SDS011;27814;53.452;-6.180;2022-12-18T05:57:42;16.55;;;4.88;;
41815;SDS011;27814;53.452;-6.180;2022-12-18T06:00:11;12.48;;;4.93;;
41815;SDS011;27814;53.452;-6.180;2022-12-18T06:02:40;14.02;;;4.18;;
41815;SDS011;27814;53.452;-6.180;2022-12-18T06:05:09;10.55;;;4.22;;
41815;SDS011;27814;53.452;-6.180;2022-12-18T06:07:37;12.33;;;3.97;;
41815;SDS011;27814;53.452;-6.180;2022-12-18T06:10:06;17.35;;;4.20;;
41815;SDS011;27814;53.452;-6.180;2022-12-18T06:12:34;13.20;;;4.03;;
41815;SDS011;27814;53.452;-6.180;2022-12-18T06:15:06;11.05;;;4.22;;
41815;SDS011;27814;53.452;-6.180;2022-12-18T06:17:36;13.05;;;4.30;;
41815;SDS011;27814;53.452;-6.180;2022-12-18T06:20:05;15.63;;;4.18;;
41815;SDS011;27814;53.452;-6.180;2022-12-18T06:22:33;13.15;;;4.10;;
41815;SDS011;27814;53.452;-6.180;2022-12-18T06:25:02;15.40;;;4.53;;
41815;SDS011;27814;53.452;-6.180;2022-12-18T06:27:33;14.15;;;4.20;;
41815;SDS011;27814;53.452;-6.180;2022-12-18T06:30:01;13.25;;;3.95;;
41815;SDS011;27814;53.452;-6.180;2022-12-18T06:32:31;12.85;;;4.63;;
41815;SDS011;27814;53.452;-6.180;2022-12-18T06:35:00;17.95;;;4.78;;
41815;SDS011;27814;53.452;-6.180;2022-12-18T06:37:28;14.73;;;4.68;;
41815;SDS011;27814;53.452;-6.180;2022-12-18T06:39:58;8.13;;;4.30;;
41815;SDS011;27814;53.452;-6.180;2022-12-18T06:42:28;13.23;;;5.10;;
41815;SDS011;27814;53.452;-6.180;2022-12-18T06:44:56;11.40;;;4.22;;
41815;SDS011;27814;53.452;-6.180;2022-12-18T06:47:24;13.88;;;4.20;;
41815;SDS011;27814;53.452;-6.180;2022-12-18T06:49:54;9.88;;;4.57;;
41815;SDS011;27814;53.452;-6.180;2022-12-18T06:52:22;10.55;;;3.95;;
41815;SDS011;27814;53.452;-6.180;2022-12-18T06:54:50;11.98;;;3.58;;
41815;SDS011;27814;53.452;-6.180;2022-12-18T06:57:19;10.70;;;4.32;;
41815;SDS011;27814;53.452;-6.180;2022-12-18T06:59:47;11.30;;;3.90;;
41815;SDS011;27814;53.452;-6.180;2022-12-18T07:02:15;11.90;;;3.65;;
41815;SDS011;27814;53.452;-6.180;2022-12-18T07:04:44;13.40;;;4.32;;
41815;SDS011;27814;53.452;-6.180;2022-12-18T07:07:13;12.18;;;3.92;;
41815;SDS011;27814;53.452;-6.180;2022-12-18T07:09:41;11.02;;;3.60;;
41815;SDS011;27814;53.452;-6.180;2022-12-18T07:12:10;9.32;;;2.97;;
41815;SDS011;27814;53.452;-6.180;2022-12-18T07:14:38;7.18;;;2.20;;
41815;SDS011;27814;53.452;-6.180;2022-12-18T07:17:07;9.10;;;1.73;;
41815;SDS011;27814;53.452;-6.180;2022-12-18T07:19:35;6.68;;;1.50;;
41815;SDS011;27814;53.452;-6.180;2022-12-18T07:22:03;6.55;;;1.77;;
41815;SDS011;27814;53.452;-6.180;2022-12-18T07:24:33;6.68;;;1.90;;
41815;SDS011;27814;53.452;-6.180;2022-12-18T07:27:02;6.63;;;2.30;;
41815;SDS011;27814;53.452;-6.180;2022-12-18T07:29:33;10.10;;;3.10;;
41815;SDS011;27814;53.452;-6.180;2022-12-18T07:32:01;14.50;;;3.53;;
41815;SDS011;27814;53.452;-6.180;2022-12-18T07:34:29;13.48;;;3.50;;
41815;SDS011;27814;53.452;-6.180;2022-12-18T07:36:58;14.25;;;3.72;;
41815;SDS011;27814;53.452;-6.180;2022-12-18T07:39:26;11.73;;;3.65;;
41815;SDS011;27814;53.452;-6.180;2022-12-18T07:41:56;14.20;;;3.10;;
41815;SDS011;27814;53.452;-6.180;2022-12-18T07:44:41;10.23;;;3.28;;
41815;SDS011;27814;53.452;-6.180;2022-12-18T07:47:10;8.88;;;3.80;;
41815;SDS011;27814;53.452;-6.180;2022-12-18T07:49:38;9.60;;;3.58;;
41815;SDS011;27814;53.452;-6.180;2022-12-18T07:52:06;11.93;;;4.00;;
41815;SDS011;27814;53.452;-6.180;2022-12-18T07:54:35;12.82;;;3.72;;
41815;SDS011;27814;53.452;-6.180;2022-12-18T07:57:05;11.38;;;3.97;;
41815;SDS011;27814;53.452;-6.180;2022-12-18T07:59:53;12.10;;;3.97;;
41815;SDS011;27814;53.452;-6.180;2022-12-18T08:02:21;9.55;;;3.45;;
41815;SDS011;27814;53.452;-6.180;2022-12-18T08:04:50;11.32;;;3.90;;
41815;SDS011;27814;53.452;-6.180;2022-12-18T08:07:18;16.90;;;4.35;;
41815;SDS011;27814;53.452;-6.180;2022-12-18T08:09:47;10.10;;;3.70;;
41815;SDS011;27814;53.452;-6.180;2022-12-18T08:12:16;9.35;;;4.00;;
41815;SDS011;27814;53.452;-6.180;2022-12-18T08:14:44;7.78;;;3.75;;
41815;SDS011;27814;53.452;-6.180;2022-12-18T08:17:13;11.33;;;3.77;;
41815;SDS011;27814;53.452;-6.180;2022-12-18T08:19:41;9.35;;;3.60;;
41815;SDS011;27814;53.452;-6.180;2022-12-18T08:22:09;11.43;;;3.73;;
41815;SDS011;27814;53.452;-6.180;2022-12-18T08:24:38;11.15;;;4.10;;
41815;SDS011;27814;53.452;-6.180;2022-12-18T08:27:06;10.15;;;3.97;;
41815;SDS011;27814;53.452;-6.180;2022-12-18T08:29:56;11.15;;;3.85;;
41815;SDS011;27814;53.452;-6.180;2022-12-18T08:32:24;13.30;;;4.00;;
41815;SDS011;27814;53.452;-6.180;2022-12-18T08:34:53;13.95;;;3.50;;
41815;SDS011;27814;53.452;-6.180;2022-12-18T08:37:22;10.90;;;3.78;;
41815;SDS011;27814;53.452;-6.180;2022-12-18T08:39:50;15.77;;;4.75;;
41815;SDS011;27814;53.452;-6.180;2022-12-18T08:42:18;12.77;;;4.40;;
41815;SDS011;27814;53.452;-6.180;2022-12-18T08:45:05;14.23;;;4.88;;
41815;SDS011;27814;53.452;-6.180;2022-12-18T08:47:35;12.82;;;4.53;;
41815;SDS011;27814;53.452;-6.180;2022-12-18T08:50:03;10.98;;;4.78;;
41815;SDS011;27814;53.452;-6.180;2022-12-18T08:52:32;10.25;;;4.53;;
41815;SDS011;27814;53.452;-6.180;2022-12-18T08:55:00;12.07;;;5.68;;
41815;SDS011;27814;53.452;-6.180;2022-12-18T08:57:28;16.33;;;5.03;;
41815;SDS011;27814;53.452;-6.180;2022-12-18T08:59:57;13.73;;;5.10;;
41815;SDS011;27814;53.452;-6.180;2022-12-18T09:02:27;13.32;;;4.93;;
41815;SDS011;27814;53.452;-6.180;2022-12-18T09:04:55;11.25;;;4.68;;
41815;SDS011;27814;53.452;-6.180;2022-12-18T09:07:24;14.68;;;4.78;;
41815;SDS011;27814;53.452;-6.180;2022-12-18T09:09:52;11.77;;;4.77;;
41815;SDS011;27814;53.452;-6.180;2022-12-18T09:12:21;19.05;;;5.28;;
41815;SDS011;27814;53.452;-6.180;2022-12-18T09:14:49;14.73;;;5.25;;
41815;SDS011;27814;53.452;-6.180;2022-12-18T09:17:17;12.73;;;4.20;;
41815;SDS011;27814;53.452;-6.180;2022-12-18T09:19:47;14.57;;;4.70;;
41815;SDS011;27814;53.452;-6.180;2022-12-18T09:22:16;15.25;;;4.40;;
41815;SDS011;27814;53.452;-6.180;2022-12-18T09:24:44;17.67;;;5.40;;
41815;SDS011;27814;53.452;-6.180;2022-12-18T09:27:13;16.23;;;4.90;;
41815;SDS011;27814;53.452;-6.180;2022-12-18T09:29:41;10.47;;;4.50;;
41815;SDS011;27814;53.452;-6.180;2022-12-18T09:32:10;12.23;;;5.18;;
41815;SDS011;27814;53.452;-6.180;2022-12-18T09:34:44;14.20;;;4.85;;
41815;SDS011;27814;53.452;-6.180;2022-12-18T09:37:14;15.20;;;4.90;;
41815;SDS011;27814;53.452;-6.180;2022-12-18T09:39:42;15.35;;;5.50;;
41815;SDS011;27814;53.452;-6.180;2022-12-18T09:42:11;18.90;;;5.05;;
41815;SDS011;27814;53.452;-6.180;2022-12-18T09:44:48;13.57;;;4.47;;
41815;SDS011;27814;53.452;-6.180;2022-12-18T09:47:18;17.65;;;4.85;;
41815;SDS011;27814;53.452;-6.180;2022-12-18T09:49:52;12.48;;;4.60;;
41815;SDS011;27814;53.452;-6.180;2022-12-18T09:52:26;16.08;;;4.65;;
41815;SDS011;27814;53.452;-6.180;2022-12-18T09:54:59;14.97;;;4.60;;
41815;SDS011;27814;53.452;-6.180;2022-12-18T09:57:29;16.73;;;5.17;;
41815;SDS011;27814;53.452;-6.180;2022-12-18T10:00:04;18.95;;;4.55;;
41815;SDS011;27814;53.452;-6.180;2022-12-18T10:02:44;11.75;;;4.43;;
41815;SDS011;27814;53.452;-6.180;2022-12-18T10:05:15;13.05;;;4.43;;
41815;SDS011;27814;53.452;-6.180;2022-12-18T10:07:53;10.23;;;4.50;;
41815;SDS011;27814;53.452;-6.180;2022-12-18T10:10:33;15.88;;;4.20;;
41815;SDS011;27814;53.452;-6.180;2022-12-18T10:13:08;12.63;;;4.07;;
41815;SDS011;27814;53.452;-6.180;2022-12-18T10:15:55;9.77;;;4.28;;
41815;SDS011;27814;53.452;-6.180;2022-12-18T10:18:38;13.40;;;4.20;;
41815;SDS011;27814;53.452;-6.180;2022-12-18T10:21:33;13.55;;;4.43;;
41815;SDS011;27814;53.452;-6.180;2022-12-18T10:24:11;11.70;;;4.28;;
41815;SDS011;27814;53.452;-6.180;2022-12-18T10:26:47;15.48;;;4.28;;
41815;SDS011;27814;53.452;-6.180;2022-12-18T10:29:15;14.38;;;4.30;;
41815;SDS011;27814;53.452;-6.180;2022-12-18T10:31:44;13.18;;;4.22;;
41815;SDS011;27814;53.452;-6.180;2022-12-18T10:34:12;14.23;;;4.63;;
41815;SDS011;27814;53.452;-6.180;2022-12-18T10:36:41;13.35;;;4.38;;
41815;SDS011;27814;53.452;-6.180;2022-12-18T10:39:19;12.45;;;3.97;;
41815;SDS011;27814;53.452;-6.180;2022-12-18T10:41:49;14.90;;;4.45;;
41815;SDS011;27814;53.452;-6.180;2022-12-18T10:44:18;15.80;;;4.60;;
41815;SDS011;27814;53.452;-6.180;2022-12-18T10:46:49;11.43;;;3.90;;
41815;SDS011;27814;53.452;-6.180;2022-12-18T10:49:23;12.57;;;4.57;;
41815;SDS011;27814;53.452;-6.180;2022-12-18T10:52:03;12.50;;;3.88;;
41815;SDS011;27814;53.452;-6.180;2022-12-18T10:54:36;13.33;;;4.20;;
41815;SDS011;27814;53.452;-6.180;2022-12-18T10:57:16;13.27;;;4.68;;
41815;SDS011;27814;53.452;-6.180;2022-12-18T10:59:56;13.98;;;4.40;;
41815;SDS011;27814;53.452;-6.180;2022-12-18T11:02:26;13.80;;;4.00;;
41815;SDS011;27814;53.452;-6.180;2022-12-18T11:05:01;9.70;;;3.80;;
41815;SDS011;27814;53.452;-6.180;2022-12-18T11:07:46;12.10;;;3.88;;
41815;SDS011;27814;53.452;-6.180;2022-12-18T11:10:18;11.52;;;3.70;;
41815;SDS011;27814;53.452;-6.180;2022-12-18T11:12:47;11.85;;;3.88;;
41815;SDS011;27814;53.452;-6.180;2022-12-18T11:15:16;10.02;;;3.38;;
41815;SDS011;27814;53.452;-6.180;2022-12-18T11:17:48;12.13;;;3.83;;
41815;SDS011;27814;53.452;-6.180;2022-12-18T11:20:24;13.10;;;3.72;;
41815;SDS011;27814;53.452;-6.180;2022-12-18T11:22:58;10.32;;;3.45;;
41815;SDS011;27814;53.452;-6.180;2022-12-18T11:25:30;12.07;;;3.60;;
41815;SDS011;27814;53.452;-6.180;2022-12-18T11:28:02;11.73;;;3.70;;
41815;SDS011;27814;53.452;-6.180;2022-12-18T11:30:33;14.77;;;4.00;;
41815;SDS011;27814;53.452;-6.180;2022-12-18T11:33:04;12.77;;;3.90;;
41815;SDS011;27814;53.452;-6.180;2022-12-18T11:35:35;11.77;;;3.83;;
41815;SDS011;27814;53.452;-6.180;2022-12-18T11:38:12;13.27;;;4.53;;
41815;SDS011;27814;53.452;-6.180;2022-12-18T11:40:49;10.68;;;4.60;;
41815;SDS011;27814;53.452;-6.180;2022-12-18T11:43:21;20.23;;;5.03;;
41815;SDS011;27814;53.452;-6.180;2022-12-18T11:45:56;17.85;;;4.80;;
41815;SDS011;27814;53.452;-6.180;2022-12-18T11:48:30;13.45;;;4.63;;
41815;SDS011;27814;53.452;-6.180;2022-12-18T11:51:02;11.63;;;4.30;;
41815;SDS011;27814;53.452;-6.180;2022-12-18T11:53:36;11.57;;;4.03;;
41815;SDS011;27814;53.452;-6.180;2022-12-18T11:56:13;11.30;;;3.80;;
41815;SDS011;27814;53.452;-6.180;2022-12-18T11:58:57;15.47;;;3.70;;
41815;SDS011;27814;53.452;-6.180;2022-12-18T12:01:37;12.95;;;3.70;;
41815;SDS011;27814;53.452;-6.180;2022-12-18T12:04:20;13.90;;;3.72;;
41815;SDS011;27814;53.452;-6.180;2022-12-18T12:07:14;10.65;;;3.88;;
41815;SDS011;27814;53.452;-6.180;2022-12-18T12:09:55;10.77;;;3.15;;
41815;SDS011;27814;53.452;-6.180;2022-12-18T12:12:37;13.83;;;3.60;;
41815;SDS011;27814;53.452;-6.180;2022-12-18T12:15:17;13.13;;;3.57;;
41815;SDS011;27814;53.452;-6.180;2022-12-18T12:20:39;14.20;;;3.40;;
41815;SDS011;27814;53.452;-6.180;2022-12-18T12:23:18;16.33;;;3.70;;
41815;SDS011;27814;53.452;-6.180;2022-12-18T12:25:55;20.27;;;3.60;;
41815;SDS011;27814;53.452;-6.180;2022-12-18T12:28:40;15.77;;;3.53;;
41815;SDS011;27814;53.452;-6.180;2022-12-18T12:31:23;15.50;;;3.67;;
41815;SDS011;27814;53.452;-6.180;2022-12-18T12:34:07;15.98;;;4.00;;
41815;SDS011;27814;53.452;-6.180;2022-12-18T12:36:48;15.95;;;4.25;;
41815;SDS011;27814;53.452;-6.180;2022-12-18T12:39:28;14.30;;;3.85;;
41815;SDS011;27814;53.452;-6.180;2022-12-18T12:42:00;15.02;;;5.50;;
41815;SDS011;27814;53.452;-6.180;2022-12-18T12:44:50;17.95;;;4.43;;
41815;SDS011;27814;53.452;-6.180;2022-12-18T12:47:23;19.57;;;3.93;;
41815;SDS011;27814;53.452;-6.180;2022-12-18T12:49:55;17.45;;;3.95;;
41815;SDS011;27814;53.452;-6.180;2022-12-18T12:52:27;14.38;;;2.80;;
41815;SDS011;27814;53.452;-6.180;2022-12-18T12:54:58;18.67;;;3.97;;
41815;SDS011;27814;53.452;-6.180;2022-12-18T12:57:30;13.33;;;2.90;;
41815;SDS011;27814;53.452;-6.180;2022-12-18T13:00:04;21.67;;;3.57;;
41815;SDS011;27814;53.452;-6.180;2022-12-18T13:02:39;14.57;;;3.30;;
41815;SDS011;27814;53.452;-6.180;2022-12-18T13:05:17;18.13;;;3.50;;
41815;SDS011;27814;53.452;-6.180;2022-12-18T13:07:53;16.40;;;3.63;;
41815;SDS011;27814;53.452;-6.180;2022-12-18T13:10:26;19.67;;;3.78;;
41815;SDS011;27814;53.452;-6.180;2022-12-18T13:13:01;19.80;;;3.23;;
41815;SDS011;27814;53.452;-6.180;2022-12-18T13:15:36;19.13;;;3.92;;
41815;SDS011;27814;53.452;-6.180;2022-12-18T13:21:02;15.98;;;3.13;;
41815;SDS011;27814;53.452;-6.180;2022-12-18T13:23:41;16.52;;;2.92;;
41815;SDS011;27814;53.452;-6.180;2022-12-18T13:26:29;12.73;;;3.40;;
41815;SDS011;27814;53.452;-6.180;2022-12-18T13:29:02;18.48;;;3.10;;
41815;SDS011;27814;53.452;-6.180;2022-12-18T13:34:29;14.50;;;2.80;;
41815;SDS011;27814;53.452;-6.180;2022-12-18T13:40:00;16.95;;;3.22;;
41815;SDS011;27814;53.452;-6.180;2022-12-18T13:42:39;19.23;;;3.40;;
41815;SDS011;27814;53.452;-6.180;2022-12-18T13:45:35;14.80;;;3.70;;
41815;SDS011;27814;53.452;-6.180;2022-12-18T13:48:20;11.48;;;3.00;;
41815;SDS011;27814;53.452;-6.180;2022-12-18T13:50:53;13.30;;;3.60;;
41815;SDS011;27814;53.452;-6.180;2022-12-18T13:53:27;13.70;;;3.00;;
41815;SDS011;27814;53.452;-6.180;2022-12-18T13:55:58;14.57;;;2.80;;
41815;SDS011;27814;53.452;-6.180;2022-12-18T13:58:26;13.90;;;2.88;;
41815;SDS011;27814;53.452;-6.180;2022-12-18T14:00:55;11.48;;;2.20;;
41815;SDS011;27814;53.452;-6.180;2022-12-18T14:03:26;12.03;;;2.23;;
41815;SDS011;27814;53.452;-6.180;2022-12-18T14:06:02;13.88;;;3.15;;
41815;SDS011;27814;53.452;-6.180;2022-12-18T14:08:35;14.00;;;2.92;;
41815;SDS011;27814;53.452;-6.180;2022-12-18T14:11:07;14.98;;;2.45;;
41815;SDS011;27814;53.452;-6.180;2022-12-18T14:13:48;13.27;;;3.17;;
41815;SDS011;27814;53.452;-6.180;2022-12-18T14:16:17;14.60;;;2.63;;
41815;SDS011;27814;53.452;-6.180;2022-12-18T14:18:48;13.38;;;2.67;;
41815;SDS011;27814;53.452;-6.180;2022-12-18T14:21:28;10.37;;;2.20;;
41815;SDS011;27814;53.452;-6.180;2022-12-18T14:24:05;11.80;;;2.88;;
41815;SDS011;27814;53.452;-6.180;2022-12-18T14:26:44;11.65;;;2.15;;
41815;SDS011;27814;53.452;-6.180;2022-12-18T14:29:20;14.88;;;2.60;;
41815;SDS011;27814;53.452;-6.180;2022-12-18T14:32:06;11.90;;;2.75;;
41815;SDS011;27814;53.452;-6.180;2022-12-18T14:34:43;13.80;;;2.95;;
41815;SDS011;27814;53.452;-6.180;2022-12-18T14:37:14;13.57;;;3.65;;
41815;SDS011;27814;53.452;-6.180;2022-12-18T14:39:54;16.55;;;3.53;;
41815;SDS011;27814;53.452;-6.180;2022-12-18T14:42:24;13.50;;;3.00;;
41815;SDS011;27814;53.452;-6.180;2022-12-18T14:48:08;14.63;;;3.20;;
41815;SDS011;27814;53.452;-6.180;2022-12-18T14:50:54;16.70;;;4.60;;
41815;SDS011;27814;53.452;-6.180;2022-12-18T14:53:29;17.33;;;4.65;;
41815;SDS011;27814;53.452;-6.180;2022-12-18T14:56:02;17.10;;;4.32;;
41815;SDS011;27814;53.452;-6.180;2022-12-18T14:58:36;22.05;;;5.28;;
41815;SDS011;27814;53.452;-6.180;2022-12-18T15:01:04;18.27;;;4.85;;
41815;SDS011;27814;53.452;-6.180;2022-12-18T15:03:34;14.80;;;3.27;;
41815;SDS011;27814;53.452;-6.180;2022-12-18T15:06:14;17.33;;;5.20;;
41815;SDS011;27814;53.452;-6.180;2022-12-18T15:08:45;19.15;;;4.85;;
41815;SDS011;27814;53.452;-6.180;2022-12-18T15:16:51;24.10;;;4.60;;